createdAt,value
2022-10-28T00:01:42.149Z,14.98
2022-10-28T00:04:08.686Z,12.45
2022-10-28T00:06:35.559Z,10.88
2022-10-28T00:09:02.318Z,12.05
2022-10-28T00:11:32.069Z,11.48
2022-10-28T00:14:00.037Z,9.73
2022-10-28T00:16:28.340Z,13.18
2022-10-28T00:18:55.101Z,11.10
2022-10-28T00:21:27.349Z,13.43
2022-10-28T00:23:54.126Z,10.35
2022-10-28T00:26:22.674Z,10.63
2022-10-28T00:28:50.974Z,10.80
2022-10-28T00:31:18.554Z,10.55
2022-10-28T00:33:45.041Z,11.48
2022-10-28T00:36:11.662Z,12.90
2022-10-28T00:38:38.424Z,10.43
2022-10-28T00:41:05.130Z,9.35
2022-10-28T00:43:36.405Z,10.68
2022-10-28T00:46:03.199Z,11.20
2022-10-28T00:48:29.652Z,8.98
2022-10-28T00:50:56.113Z,7.85
2022-10-28T00:53:26.780Z,8.23
2022-10-28T00:55:53.241Z,8.90
2022-10-28T00:58:21.119Z,9.98
2022-10-28T01:00:47.570Z,9.93
2022-10-28T01:03:18.072Z,9.13
2022-10-28T01:05:48.609Z,9.90
2022-10-28T01:08:15.092Z,9.10
2022-10-28T01:10:56.756Z,10.52
2022-10-28T01:13:37.010Z,8.93
2022-10-28T01:16:24.565Z,9.13
2022-10-28T01:19:12.960Z,6.93
2022-10-28T01:22:04.620Z,10.93
2022-10-28T01:24:55.365Z,8.18
2022-10-28T01:27:55.286Z,8.77
2022-10-28T01:30:25.673Z,7.28
2022-10-28T01:33:04.101Z,7.50
2022-10-28T01:35:40.226Z,7.20
2022-10-28T01:38:21.163Z,6.55
2022-10-28T01:41:09.438Z,7.93
2022-10-28T01:43:59.146Z,8.43
2022-10-28T01:46:42.368Z,7.35
2022-10-28T01:49:12.123Z,9.90
2022-10-28T01:51:49.847Z,7.32
2022-10-28T01:54:17.787Z,6.35
2022-10-28T01:56:44.247Z,7.28
2022-10-28T01:59:17.160Z,7.15
2022-10-28T02:01:43.756Z,7.28
2022-10-28T02:04:10.346Z,5.18
2022-10-28T02:06:36.822Z,6.70
2022-10-28T02:09:21.615Z,6.38
2022-10-28T02:12:03.566Z,7.93
2022-10-28T02:14:51.761Z,7.15
2022-10-28T02:17:24.188Z,5.15
2022-10-28T02:20:27.570Z,6.57
2022-10-28T02:23:12.140Z,6.00
2022-10-28T02:25:43.141Z,7.70
2022-10-28T02:30:58.051Z,4.50
2022-10-28T02:33:27.115Z,6.65
2022-10-28T02:35:59.530Z,6.80
2022-10-28T02:38:33.582Z,5.55
2022-10-28T02:43:27.022Z,6.88
2022-10-28T02:45:56.025Z,11.90
2022-10-28T02:48:30.390Z,6.95
2022-10-28T02:51:02.988Z,10.75
2022-10-28T02:53:32.094Z,14.73
2022-10-28T02:55:59.796Z,11.05
2022-10-28T02:58:27.813Z,11.95
2022-10-28T03:00:54.549Z,12.25
2022-10-28T03:03:21.078Z,15.73
2022-10-28T03:05:47.536Z,11.05
2022-10-28T03:08:14.082Z,13.75
2022-10-28T03:10:40.615Z,11.85
2022-10-28T03:13:07.458Z,8.38
2022-10-28T03:15:34.029Z,7.95
2022-10-28T03:18:00.523Z,12.77
2022-10-28T03:20:26.961Z,13.05
2022-10-28T03:22:53.628Z,13.05
2022-10-28T03:25:20.207Z,14.32
2022-10-28T03:27:46.837Z,12.10
2022-10-28T03:30:14.536Z,13.65
2022-10-28T03:32:44.057Z,12.00
2022-10-28T03:35:10.538Z,14.05
2022-10-28T03:37:37.046Z,9.88
2022-10-28T03:40:07.754Z,13.10
2022-10-28T03:42:35.455Z,12.13
2022-10-28T03:45:04.399Z,14.15
2022-10-28T03:47:30.865Z,11.52
2022-10-28T03:49:57.356Z,10.57
2022-10-28T03:52:23.820Z,7.80
2022-10-28T03:54:50.305Z,12.95
2022-10-28T03:57:16.881Z,10.20
2022-10-28T03:59:43.352Z,10.60
2022-10-28T04:02:09.955Z,9.25
2022-10-28T04:04:36.611Z,13.98
2022-10-28T04:07:03.070Z,14.15
2022-10-28T04:09:29.527Z,12.70
2022-10-28T04:11:56.045Z,11.25
2022-10-28T04:14:22.515Z,10.70
2022-10-28T04:16:48.970Z,11.23
2022-10-28T04:19:15.421Z,13.32
2022-10-28T04:21:41.913Z,10.57
2022-10-28T04:24:08.424Z,10.45
2022-10-28T04:26:35.252Z,7.45
2022-10-28T04:29:01.706Z,9.68
2022-10-28T04:31:28.199Z,7.22
2022-10-28T04:33:54.656Z,9.07
2022-10-28T04:36:21.120Z,11.05
2022-10-28T04:38:47.595Z,9.02
2022-10-28T04:41:14.514Z,10.05
2022-10-28T04:43:40.975Z,9.75
2022-10-28T04:46:07.716Z,8.27
2022-10-28T04:48:34.253Z,9.23
2022-10-28T04:51:00.767Z,11.70
2022-10-28T04:53:27.281Z,10.23
2022-10-28T04:56:00.027Z,9.48
2022-10-28T04:58:26.895Z,9.45
2022-10-28T05:00:53.339Z,11.10
2022-10-28T05:03:19.812Z,8.38
2022-10-28T05:05:46.936Z,8.75
2022-10-28T05:08:13.392Z,7.45
2022-10-28T05:10:39.856Z,8.98
2022-10-28T05:13:06.339Z,9.80
2022-10-28T05:15:32.801Z,8.38
2022-10-28T05:17:59.319Z,10.68
2022-10-28T05:20:25.774Z,6.88
2022-10-28T05:22:53.922Z,8.43
2022-10-28T05:25:20.898Z,9.95
2022-10-28T05:27:47.408Z,9.73
2022-10-28T05:30:13.927Z,10.85
2022-10-28T05:32:40.754Z,6.78
2022-10-28T05:35:07.690Z,9.65
2022-10-28T05:37:34.171Z,8.07
2022-10-28T05:40:00.628Z,8.32
2022-10-28T05:42:27.109Z,9.18
2022-10-28T05:44:53.595Z,6.97
2022-10-28T05:47:20.106Z,6.80
2022-10-28T05:49:46.571Z,7.22
2022-10-28T05:52:13.041Z,9.60
2022-10-28T05:54:39.503Z,8.38
2022-10-28T05:57:05.973Z,6.97
2022-10-28T05:59:32.418Z,8.88
2022-10-28T06:01:58.942Z,7.30
2022-10-28T06:04:25.444Z,6.90
2022-10-28T06:06:54.786Z,9.02
2022-10-28T06:09:21.249Z,11.05
2022-10-28T06:11:46.290Z,11.77
2022-10-28T06:14:12.741Z,6.65
2022-10-28T06:16:39.239Z,5.88
2022-10-28T06:19:05.697Z,7.15
2022-10-28T06:21:32.142Z,5.50
2022-10-28T06:23:58.594Z,5.70
2022-10-28T06:26:25.044Z,6.68
2022-10-28T06:28:51.506Z,6.55
2022-10-28T06:31:17.988Z,6.65
2022-10-28T06:33:44.463Z,8.70
2022-10-28T06:36:11.469Z,8.57
2022-10-28T06:38:37.949Z,9.02
2022-10-28T06:41:04.411Z,8.75
2022-10-28T06:43:30.883Z,7.85
2022-10-28T06:46:01.312Z,8.25
2022-10-28T06:48:29.333Z,11.70
2022-10-28T06:50:56.338Z,8.75
2022-10-28T06:53:22.876Z,5.80
2022-10-28T06:55:56.270Z,11.52
2022-10-28T06:58:22.968Z,6.30
2022-10-28T07:00:49.516Z,9.82
2022-10-28T07:03:16.180Z,7.22
2022-10-28T07:05:42.682Z,5.57
2022-10-28T07:08:09.161Z,8.23
2022-10-28T07:10:35.621Z,11.02
2022-10-28T07:13:02.093Z,8.00
2022-10-28T07:15:28.731Z,6.10
2022-10-28T07:17:55.764Z,6.47
2022-10-28T07:20:22.641Z,7.60
2022-10-28T07:22:50.150Z,9.20
2022-10-28T07:25:16.618Z,10.13
2022-10-28T07:27:43.158Z,8.23
2022-10-28T07:30:10.291Z,6.53
2022-10-28T07:32:36.784Z,11.20
2022-10-28T07:35:03.335Z,11.02
2022-10-28T07:37:30.188Z,9.90
2022-10-28T07:39:56.638Z,7.97
2022-10-28T07:42:23.116Z,5.60
2022-10-28T07:44:49.591Z,8.77
2022-10-28T07:47:17.605Z,7.22
2022-10-28T07:49:44.278Z,13.45
2022-10-28T07:52:10.737Z,9.63
2022-10-28T07:54:37.195Z,8.48
2022-10-28T07:57:03.690Z,10.30
2022-10-28T07:59:30.194Z,10.13
2022-10-28T08:01:56.731Z,8.40
2022-10-28T08:04:23.253Z,8.82
2022-10-28T08:06:49.804Z,15.77
2022-10-28T08:09:16.469Z,12.93
2022-10-28T08:11:42.915Z,12.05
2022-10-28T08:14:09.442Z,8.90
2022-10-28T08:16:35.898Z,10.88
2022-10-28T08:19:07.529Z,15.77
2022-10-28T08:21:34.396Z,8.18
2022-10-28T08:24:01.187Z,8.15
2022-10-28T08:26:27.651Z,10.55
2022-10-28T08:28:54.131Z,8.63
2022-10-28T08:31:20.609Z,9.00
2022-10-28T08:33:47.137Z,11.82
2022-10-28T08:36:15.132Z,13.25
2022-10-28T08:38:45.705Z,7.28
2022-10-28T08:41:28.117Z,8.00
2022-10-28T08:43:57.590Z,12.50
2022-10-28T08:46:46.107Z,10.98
2022-10-28T08:49:14.641Z,11.13
2022-10-28T08:52:02.621Z,10.73
2022-10-28T08:54:50.855Z,11.18
2022-10-28T08:57:22.141Z,6.90
2022-10-28T08:59:50.047Z,9.70
2022-10-28T09:02:24.258Z,11.75
2022-10-28T09:05:00.261Z,11.07
2022-10-28T09:07:27.729Z,13.32
2022-10-28T09:09:54.332Z,10.32
2022-10-28T09:12:35.878Z,10.43
2022-10-28T09:15:34.955Z,12.50
2022-10-28T09:18:22.118Z,11.55
2022-10-28T09:20:56.177Z,14.10
2022-10-28T09:26:24.501Z,8.00
2022-10-28T09:29:15.169Z,10.73
2022-10-28T09:31:44.465Z,18.63
2022-10-28T09:34:26.170Z,10.38
2022-10-28T09:37:15.577Z,9.40
2022-10-28T09:39:44.007Z,10.82
2022-10-28T09:42:14.917Z,8.43
2022-10-28T09:44:53.878Z,9.88
2022-10-28T09:47:37.605Z,9.25
2022-10-28T09:50:07.456Z,11.63
2022-10-28T09:52:40.147Z,6.75
2022-10-28T09:55:09.245Z,10.18
2022-10-28T09:57:35.720Z,8.75
2022-10-28T10:00:02.250Z,7.30
2022-10-28T10:02:32.976Z,9.57
2022-10-28T10:05:00.385Z,9.60
2022-10-28T10:07:44.539Z,7.13
2022-10-28T10:10:23.588Z,10.25
2022-10-28T10:12:52.395Z,12.10
2022-10-28T10:15:45.007Z,14.30
2022-10-28T10:18:16.845Z,6.50
2022-10-28T10:20:51.963Z,8.40
2022-10-28T10:23:37.722Z,9.15
2022-10-28T10:26:08.232Z,11.20
2022-10-28T10:28:48.444Z,8.40
2022-10-28T10:31:25.628Z,10.57
2022-10-28T10:33:53.171Z,12.15
2022-10-28T10:36:23.769Z,13.57
2022-10-28T10:38:54.620Z,17.63
2022-10-28T10:41:40.693Z,7.80
2022-10-28T10:44:22.390Z,15.30
2022-10-28T10:47:05.129Z,12.32
2022-10-28T10:49:33.589Z,12.25
2022-10-28T10:52:02.505Z,12.02
2022-10-28T10:54:32.254Z,14.65
2022-10-28T10:57:09.187Z,8.60
2022-10-28T10:59:37.653Z,10.95
2022-10-28T11:02:04.252Z,11.07
2022-10-28T11:04:30.909Z,10.60
2022-10-28T11:06:57.447Z,8.45
2022-10-28T11:09:34.269Z,14.30
2022-10-28T11:12:00.781Z,12.32
2022-10-28T11:14:32.355Z,7.82
2022-10-28T11:17:00.081Z,8.18
2022-10-28T11:19:36.977Z,11.38
2022-10-28T11:22:38.231Z,8.32
2022-10-28T11:25:28.018Z,10.35
2022-10-28T11:28:20.878Z,11.85
2022-10-28T11:33:46.419Z,9.52
2022-10-28T11:36:27.346Z,11.10
2022-10-28T11:39:11.603Z,10.90
2022-10-28T11:44:41.896Z,11.60
2022-10-28T11:47:08.206Z,8.18
2022-10-28T11:50:13.700Z,10.80
2022-10-28T11:53:14.439Z,12.27
2022-10-28T11:55:53.064Z,6.78
2022-10-28T11:58:19.381Z,10.15
2022-10-28T12:01:04.970Z,13.20
2022-10-28T12:03:49.125Z,9.52
2022-10-28T12:06:18.490Z,18.17
2022-10-28T12:09:13.065Z,17.40
2022-10-28T12:14:32.806Z,10.75
2022-10-28T12:17:06.446Z,9.90
2022-10-28T12:19:35.086Z,12.32
2022-10-28T12:22:14.108Z,14.40
2022-10-28T12:24:41.374Z,12.05
2022-10-28T12:27:17.093Z,15.77
2022-10-28T12:29:47.651Z,14.18
2022-10-28T12:32:18.291Z,15.32
2022-10-28T12:34:53.431Z,15.07
2022-10-28T12:37:29.062Z,12.23
2022-10-28T12:40:11.248Z,12.48
2022-10-28T12:42:40.100Z,10.48
2022-10-28T12:45:10.122Z,15.48
2022-10-28T12:47:49.995Z,10.57
2022-10-28T12:50:25.362Z,9.95
2022-10-28T12:53:03.815Z,9.63
2022-10-28T12:55:42.907Z,8.13
2022-10-28T12:58:22.489Z,11.25
2022-10-28T13:00:54.461Z,12.13
2022-10-28T13:03:21.050Z,12.23
2022-10-28T13:05:52.035Z,11.85
2022-10-28T13:08:25.572Z,17.02
2022-10-28T13:11:12.194Z,12.60
2022-10-28T13:13:57.397Z,10.70
2022-10-28T13:16:45.547Z,11.50
2022-10-28T13:19:41.217Z,12.18
2022-10-28T13:22:32.762Z,11.57
2022-10-28T13:25:23.050Z,12.23
2022-10-28T13:27:56.309Z,15.13
2022-10-28T13:30:23.180Z,10.57
2022-10-28T13:33:00.150Z,13.88
2022-10-28T13:35:26.744Z,8.63
2022-10-28T13:37:54.246Z,10.73
2022-10-28T13:40:21.741Z,11.50
2022-10-28T13:42:48.446Z,15.50
2022-10-28T13:45:48.920Z,10.98
2022-10-28T13:48:41.243Z,8.45
2022-10-28T13:51:10.637Z,10.07
2022-10-28T13:53:47.192Z,10.25
2022-10-28T13:56:27.739Z,10.27
2022-10-28T13:58:56.020Z,10.48
2022-10-28T14:02:28.428Z,10.07
2022-10-28T14:04:55.212Z,9.85
2022-10-28T14:09:53.786Z,12.93
2022-10-28T14:12:28.470Z,11.90
2022-10-28T14:15:05.079Z,9.10
2022-10-28T14:17:42.296Z,13.20
2022-10-28T14:20:25.626Z,8.57
2022-10-28T14:22:53.157Z,10.52
2022-10-28T14:25:51.363Z,10.45
2022-10-28T14:28:26.872Z,8.57
2022-10-28T14:31:11.657Z,9.30
2022-10-28T14:33:41.852Z,11.65
2022-10-28T14:36:17.424Z,8.63
2022-10-28T14:38:49.768Z,12.60
2022-10-28T14:41:26.937Z,19.55
2022-10-28T14:44:08.590Z,21.15
2022-10-28T14:46:53.838Z,17.17
2022-10-28T14:49:27.968Z,16.50
2022-10-28T14:51:54.666Z,16.98
2022-10-28T14:54:40.569Z,12.30
2022-10-28T14:57:07.771Z,13.82
2022-10-28T14:59:38.214Z,12.00
2022-10-28T15:02:29.900Z,15.05
2022-10-28T15:05:11.687Z,11.98
2022-10-28T15:07:38.714Z,9.50
2022-10-28T15:10:15.324Z,11.75
2022-10-28T15:12:43.508Z,10.52
2022-10-28T15:15:20.906Z,10.55
2022-10-28T15:17:47.404Z,12.52
2022-10-28T15:20:30.795Z,10.80
2022-10-28T15:23:19.208Z,15.13
2022-10-28T15:25:45.925Z,13.82
2022-10-28T15:28:12.520Z,11.75
2022-10-28T15:30:44.985Z,12.10
2022-10-28T15:33:39.770Z,18.15
2022-10-28T15:36:25.143Z,9.07
2022-10-28T15:38:51.889Z,13.65
2022-10-28T15:41:21.274Z,14.35
2022-10-28T15:44:01.061Z,10.45
2022-10-28T15:46:27.612Z,8.48
2022-10-28T15:48:54.553Z,9.52
2022-10-28T15:51:21.417Z,10.70
2022-10-28T15:53:48.911Z,9.40
2022-10-28T15:56:15.255Z,9.75
2022-10-28T15:58:42.662Z,12.45
2022-10-28T16:01:29.203Z,10.27
2022-10-28T16:03:56.078Z,12.25
2022-10-28T16:06:33.631Z,10.65
2022-10-28T16:09:02.947Z,12.25
2022-10-28T16:11:29.395Z,11.07
2022-10-28T16:13:56.113Z,12.70
2022-10-28T16:20:17.380Z,12.63
2022-10-28T16:22:45.382Z,8.10
2022-10-28T16:25:13.009Z,9.93
2022-10-28T16:27:39.506Z,8.63
2022-10-28T16:30:06.678Z,10.30
2022-10-28T16:32:36.879Z,9.68
2022-10-28T16:35:04.047Z,7.57
2022-10-28T16:37:31.954Z,9.18
2022-10-28T16:39:58.484Z,8.10
2022-10-28T16:42:24.963Z,10.38
2022-10-28T16:44:51.461Z,7.82
2022-10-28T16:47:19.171Z,8.75
2022-10-28T16:49:45.718Z,9.23
2022-10-28T16:52:19.931Z,7.32
2022-10-28T16:54:46.977Z,8.25
2022-10-28T16:57:13.467Z,9.07
2022-10-28T16:59:39.905Z,8.15
2022-10-28T17:02:27.899Z,6.85
2022-10-28T17:04:54.631Z,8.02
2022-10-28T17:07:21.027Z,10.95
2022-10-28T17:09:47.825Z,9.18
2022-10-28T17:12:16.265Z,7.30
2022-10-28T17:14:42.794Z,10.15
2022-10-28T17:17:10.216Z,6.18
2022-10-28T17:19:37.463Z,8.98
2022-10-28T17:22:08.961Z,8.85
2022-10-28T17:24:36.504Z,10.38
2022-10-28T17:27:02.947Z,7.28
2022-10-28T17:29:29.384Z,11.13
2022-10-28T17:31:55.808Z,7.78
2022-10-28T17:34:22.218Z,9.02
2022-10-28T17:36:48.884Z,9.63
2022-10-28T17:39:19.612Z,8.45
2022-10-28T17:41:48.423Z,8.83
2022-10-28T17:44:14.824Z,9.13
2022-10-28T17:46:41.243Z,8.50
2022-10-28T17:49:08.595Z,6.70
2022-10-28T17:51:35.694Z,9.15
2022-10-28T17:54:02.456Z,11.82
2022-10-28T17:56:29.321Z,9.68
2022-10-28T17:58:55.773Z,9.98
2022-10-28T18:01:22.303Z,7.43
2022-10-28T18:03:49.701Z,6.25
2022-10-28T18:06:16.141Z,8.70
2022-10-28T18:08:43.200Z,7.95
2022-10-28T18:11:11.165Z,7.53
2022-10-28T18:13:39.370Z,9.25
2022-10-28T18:16:13.048Z,10.40
2022-10-28T18:18:42.426Z,9.43
2022-10-28T18:21:09.999Z,11.65
2022-10-28T18:23:36.412Z,9.68
2022-10-28T18:26:04.573Z,11.05
2022-10-28T18:28:31.358Z,8.85
2022-10-28T18:31:05.459Z,9.43
2022-10-28T18:33:32.332Z,7.18
2022-10-28T18:39:46.301Z,7.72
2022-10-28T18:42:13.514Z,7.05
2022-10-28T18:44:41.325Z,9.18
2022-10-28T18:47:07.736Z,11.05
2022-10-28T18:49:34.131Z,9.20
2022-10-28T18:52:00.943Z,10.10
2022-10-28T18:54:27.344Z,8.00
2022-10-28T18:56:57.442Z,7.53
2022-10-28T18:59:24.259Z,9.10
2022-10-28T19:01:50.742Z,10.50
2022-10-28T19:04:17.300Z,6.00
2022-10-28T19:06:43.741Z,7.78
2022-10-28T19:09:10.236Z,7.93
2022-10-28T19:11:36.664Z,7.05
2022-10-28T19:14:05.408Z,8.88
2022-10-28T19:16:33.330Z,7.53
2022-10-28T19:19:00.669Z,6.85
2022-10-28T19:21:27.443Z,5.60
2022-10-28T19:23:53.952Z,8.85
2022-10-28T19:26:20.412Z,9.52
2022-10-28T19:28:47.636Z,7.18
2022-10-28T19:31:18.511Z,7.40
2022-10-28T19:33:45.220Z,7.10
2022-10-28T19:36:14.493Z,6.70
2022-10-28T19:38:40.899Z,7.97
2022-10-28T19:41:09.303Z,7.40
2022-10-28T19:43:35.924Z,9.55
2022-10-28T19:46:03.844Z,7.03
2022-10-28T19:48:30.299Z,14.88
2022-10-28T19:50:56.710Z,8.50
2022-10-28T19:53:23.102Z,11.57
2022-10-28T19:55:49.782Z,11.77
2022-10-28T19:58:16.356Z,12.68
2022-10-28T20:00:42.750Z,10.13
2022-10-28T20:03:09.164Z,13.20
2022-10-28T20:05:35.566Z,11.23
2022-10-28T20:08:02.064Z,8.55
2022-10-28T20:10:28.459Z,11.15
2022-10-28T20:12:55.108Z,7.72
2022-10-28T20:15:21.721Z,15.30
2022-10-28T20:17:48.122Z,11.88
2022-10-28T20:20:15.045Z,14.23
2022-10-28T20:22:42.567Z,14.88
2022-10-28T20:25:09.474Z,12.35
2022-10-28T20:27:35.924Z,13.52
2022-10-28T20:30:02.389Z,12.88
2022-10-28T20:32:28.876Z,14.05
2022-10-28T20:34:55.316Z,8.40
2022-10-28T20:37:21.763Z,10.38
2022-10-28T20:39:48.392Z,12.70
2022-10-28T20:42:15.606Z,12.55
2022-10-28T20:44:42.106Z,10.18
2022-10-28T20:47:08.553Z,11.10
2022-10-28T20:49:35.257Z,9.85
2022-10-28T20:52:02.048Z,7.60
2022-10-28T20:54:28.524Z,12.38
2022-10-28T20:56:54.993Z,8.25
2022-10-28T20:59:21.518Z,15.25
2022-10-28T21:01:48.079Z,8.07
2022-10-28T21:04:14.793Z,14.73
2022-10-28T21:06:41.278Z,23.35
2022-10-28T21:09:09.020Z,43.67
2022-10-28T21:11:35.528Z,36.10
2022-10-28T21:14:02.022Z,43.03
2022-10-28T21:16:28.843Z,31.27
2022-10-28T21:18:55.351Z,30.48
2022-10-28T21:21:22.405Z,28.67
2022-10-28T21:23:49.033Z,31.65
2022-10-28T21:26:15.574Z,27.08
2022-10-28T21:28:42.027Z,26.25
2022-10-28T21:31:13.034Z,25.58
2022-10-28T21:33:39.886Z,25.35
2022-10-28T21:36:16.988Z,23.25
2022-10-28T21:38:43.464Z,24.45
2022-10-28T21:41:17.197Z,20.05
2022-10-28T21:43:45.209Z,20.00
2022-10-28T21:46:11.712Z,17.95
2022-10-28T21:48:38.587Z,22.33
2022-10-28T21:51:09.986Z,27.17
2022-10-28T21:53:41.208Z,19.95
2022-10-28T21:56:19.337Z,17.13
2022-10-28T21:58:47.095Z,17.33
2022-10-28T22:01:15.820Z,18.50
2022-10-28T22:03:42.429Z,15.77
2022-10-28T22:06:09.073Z,19.70
2022-10-28T22:08:35.565Z,17.75
2022-10-28T22:11:06.599Z,13.70
2022-10-28T22:13:33.503Z,18.00
2022-10-28T22:16:05.314Z,17.13
2022-10-28T22:18:32.845Z,15.18
2022-10-28T22:21:11.737Z,16.45
2022-10-28T22:23:38.305Z,14.90
2022-10-28T22:26:05.790Z,17.40
2022-10-28T22:28:32.266Z,22.92
2022-10-28T22:31:02.425Z,18.00
2022-10-28T22:33:29.045Z,13.70
2022-10-28T22:36:02.707Z,14.85
2022-10-28T22:38:29.224Z,13.07
2022-10-28T22:41:09.567Z,13.65
2022-10-28T22:43:36.322Z,15.98
2022-10-28T22:46:02.848Z,14.90
2022-10-28T22:48:29.398Z,12.38
2022-10-28T22:50:55.958Z,13.75
2022-10-28T22:53:22.514Z,13.35
2022-10-28T22:55:49.233Z,14.10
2022-10-28T22:58:16.279Z,11.95
2022-10-28T23:00:43.050Z,12.02
2022-10-28T23:03:09.795Z,12.77
2022-10-28T23:05:36.246Z,14.80
2022-10-28T23:08:02.720Z,12.80
2022-10-28T23:10:29.189Z,11.45
2022-10-28T23:12:59.241Z,13.52
2022-10-28T23:15:25.984Z,11.73
2022-10-28T23:17:52.977Z,17.27
2022-10-28T23:20:20.260Z,12.98
2022-10-28T23:22:46.704Z,15.93
2022-10-28T23:25:13.236Z,13.88
2022-10-28T23:27:40.317Z,9.80
2022-10-28T23:30:08.004Z,10.20
2022-10-28T23:32:34.646Z,10.27
2022-10-28T23:35:01.095Z,10.55
2022-10-28T23:37:27.883Z,10.07
2022-10-28T23:39:54.404Z,12.00
2022-10-28T23:42:20.939Z,11.98
2022-10-28T23:44:47.380Z,10.50
2022-10-28T23:47:13.880Z,11.65
2022-10-28T23:49:40.311Z,11.32
2022-10-28T23:52:06.803Z,15.77
2022-10-28T23:54:33.275Z,12.80
2022-10-28T23:56:59.851Z,12.95
2022-10-28T23:59:26.285Z,11.85
